createdAt,value
2023-03-29T00:00:14.488Z,93.51
2023-03-29T00:02:43.196Z,93.30
2023-03-29T00:05:12.417Z,93.07
2023-03-29T00:07:41.194Z,93.04
2023-03-29T00:10:11.403Z,93.10
2023-03-29T00:12:42.748Z,93.46
2023-03-29T00:15:11.634Z,93.01
2023-03-29T00:17:39.787Z,92.77
2023-03-29T00:20:10.294Z,95.44
2023-03-29T00:22:39.891Z,95.14
2023-03-29T00:25:08.527Z,93.79
2023-03-29T00:27:36.901Z,93.62
2023-03-29T00:30:08.676Z,93.90
2023-03-29T00:32:36.633Z,94.62
2023-03-29T00:35:05.331Z,94.94
2023-03-29T00:37:33.861Z,93.86
2023-03-29T00:40:02.123Z,94.50
2023-03-29T00:42:30.084Z,94.63
2023-03-29T00:45:01.839Z,93.57
2023-03-29T00:47:36.154Z,94.94
2023-03-29T00:50:06.294Z,96.23
2023-03-29T00:52:35.814Z,95.51
2023-03-29T00:55:10.227Z,95.65
2023-03-29T00:57:38.987Z,97.22
2023-03-29T01:00:10.227Z,95.81
2023-03-29T01:02:41.084Z,97.13
2023-03-29T01:05:14.468Z,96.32
2023-03-29T01:07:48.160Z,95.75
2023-03-29T01:10:21.648Z,94.83
2023-03-29T01:12:54.478Z,96.45
2023-03-29T01:15:27.298Z,95.83
2023-03-29T01:17:58.333Z,96.77
2023-03-29T01:20:39.374Z,95.97
2023-03-29T01:23:26.955Z,95.46
2023-03-29T01:26:01.001Z,95.04
2023-03-29T01:28:34.724Z,93.77
2023-03-29T01:31:08.450Z,95.86
2023-03-29T01:33:41.615Z,95.00
2023-03-29T01:36:17.497Z,93.98
2023-03-29T01:38:50.702Z,95.12
2023-03-29T01:41:18.786Z,97.10
2023-03-29T01:43:52.576Z,95.65
2023-03-29T01:46:31.677Z,95.21
2023-03-29T01:49:03.958Z,94.11
2023-03-29T01:51:38.541Z,96.05
2023-03-29T01:54:10.803Z,93.98
2023-03-29T01:56:41.856Z,94.39
2023-03-29T01:59:14.724Z,95.22
2023-03-29T02:01:49.269Z,94.56
2023-03-29T02:04:21.187Z,96.36
2023-03-29T02:06:54.246Z,97.94
2023-03-29T02:09:23.406Z,96.86
2023-03-29T02:11:53.004Z,96.33
2023-03-29T02:14:22.483Z,97.19
2023-03-29T02:16:50.438Z,96.52
2023-03-29T02:19:19.661Z,95.73
2023-03-29T02:21:57.103Z,96.16
2023-03-29T02:24:26.569Z,97.47
2023-03-29T02:26:54.512Z,98.10
2023-03-29T02:29:23.867Z,96.92
2023-03-29T02:31:56.483Z,96.18
2023-03-29T02:34:29.933Z,95.34
2023-03-29T02:37:01.281Z,94.82
2023-03-29T02:39:32.274Z,95.01
2023-03-29T02:42:01.131Z,93.35
2023-03-29T02:44:33.273Z,93.03
2023-03-29T02:47:07.776Z,91.49
2023-03-29T02:49:35.938Z,91.99
2023-03-29T02:52:09.821Z,92.38
2023-03-29T02:54:43.605Z,92.00
2023-03-29T02:57:12.366Z,90.93
2023-03-29T02:59:44.077Z,90.83
2023-03-29T03:02:13.776Z,90.95
2023-03-29T03:04:41.746Z,91.80
2023-03-29T03:07:09.852Z,90.48
2023-03-29T03:09:37.795Z,89.03
2023-03-29T03:12:06.338Z,89.46
2023-03-29T03:14:34.456Z,87.95
2023-03-29T03:17:04.919Z,88.27
2023-03-29T03:19:33.122Z,89.37
2023-03-29T03:22:01.056Z,89.76
2023-03-29T03:24:29.206Z,90.20
2023-03-29T03:26:58.166Z,91.45
2023-03-29T03:29:26.210Z,90.17
2023-03-29T03:31:54.434Z,89.15
2023-03-29T03:34:24.201Z,88.32
2023-03-29T03:36:52.119Z,88.57
2023-03-29T03:39:20.116Z,88.31
2023-03-29T03:41:48.119Z,88.68
2023-03-29T03:44:16.633Z,87.83
2023-03-29T03:46:44.577Z,87.73
2023-03-29T03:49:12.532Z,88.56
2023-03-29T03:51:42.333Z,88.52
2023-03-29T03:54:10.410Z,90.71
2023-03-29T03:56:38.500Z,89.60
2023-03-29T03:59:07.081Z,92.20
2023-03-29T04:01:35.977Z,91.38
2023-03-29T04:04:04.636Z,90.67
2023-03-29T04:06:32.667Z,91.52
2023-03-29T04:09:02.440Z,90.91
2023-03-29T04:11:30.380Z,90.59
2023-03-29T04:13:58.320Z,93.64
2023-03-29T04:16:26.597Z,91.59
2023-03-29T04:18:54.651Z,91.67
2023-03-29T04:21:22.597Z,90.78
2023-03-29T04:23:50.558Z,91.00
2023-03-29T04:26:19.978Z,90.42
2023-03-29T04:28:47.951Z,88.83
2023-03-29T04:31:16.973Z,89.11
2023-03-29T04:33:46.793Z,89.19
2023-03-29T04:36:15.996Z,88.07
2023-03-29T04:38:47.437Z,87.73
2023-03-29T04:41:16.436Z,87.08
2023-03-29T04:43:46.705Z,87.66
2023-03-29T04:46:14.961Z,86.54
2023-03-29T04:48:43.615Z,86.22
2023-03-29T04:51:11.653Z,85.24
2023-03-29T04:53:39.591Z,85.82
2023-03-29T04:56:08.434Z,85.91
2023-03-29T04:58:36.427Z,85.22
2023-03-29T05:01:06.280Z,84.19
2023-03-29T05:03:34.456Z,84.98
2023-03-29T05:06:06.972Z,85.86
2023-03-29T05:08:35.336Z,84.74
2023-03-29T05:11:03.943Z,86.03
2023-03-29T05:13:32.021Z,86.85
2023-03-29T05:16:00.743Z,84.73
2023-03-29T05:18:31.046Z,85.61
2023-03-29T05:20:59.593Z,81.45
2023-03-29T05:23:29.033Z,79.03
2023-03-29T05:25:57.301Z,77.22
2023-03-29T05:28:25.213Z,76.70
2023-03-29T05:31:01.226Z,76.55
2023-03-29T05:33:31.268Z,77.45
2023-03-29T05:36:03.580Z,77.54
2023-03-29T05:38:32.826Z,75.37
2023-03-29T05:41:01.565Z,74.18
2023-03-29T05:43:29.916Z,75.42
2023-03-29T05:45:57.964Z,71.48
2023-03-29T05:48:27.051Z,73.46
2023-03-29T05:50:57.843Z,70.01
2023-03-29T05:53:27.583Z,70.63
2023-03-29T05:55:56.158Z,69.84
2023-03-29T05:58:26.830Z,71.33
2023-03-29T06:00:54.861Z,70.54
2023-03-29T06:03:25.605Z,69.83
2023-03-29T06:06:00.502Z,66.13
2023-03-29T06:08:28.657Z,67.37
2023-03-29T06:11:02.427Z,66.19
2023-03-29T06:13:33.571Z,65.85
2023-03-29T06:16:02.171Z,65.67
2023-03-29T06:18:30.103Z,64.71
2023-03-29T06:20:59.810Z,64.93
2023-03-29T06:23:28.166Z,64.34
2023-03-29T06:25:56.455Z,62.64
2023-03-29T06:28:25.060Z,65.34
2023-03-29T06:30:56.385Z,65.81
2023-03-29T06:33:25.432Z,63.28
2023-03-29T06:35:53.755Z,66.36
2023-03-29T06:38:23.388Z,64.12
2023-03-29T06:40:52.798Z,62.43
2023-03-29T06:43:20.944Z,61.75
2023-03-29T06:45:48.861Z,61.35
2023-03-29T06:48:17.416Z,61.47
2023-03-29T06:50:46.299Z,60.57
2023-03-29T06:53:15.724Z,61.01
2023-03-29T06:55:45.764Z,61.65
2023-03-29T06:58:13.960Z,57.46
2023-03-29T07:00:42.330Z,57.61
2023-03-29T07:03:13.494Z,59.70
2023-03-29T07:05:42.341Z,59.45
2023-03-29T07:08:16.565Z,60.64
2023-03-29T07:10:49.033Z,58.59
2023-03-29T07:13:17.349Z,57.37
2023-03-29T07:15:45.888Z,59.36
2023-03-29T07:18:13.959Z,53.73
2023-03-29T07:20:42.646Z,55.77
2023-03-29T07:23:11.493Z,56.26
2023-03-29T07:25:41.120Z,55.18
2023-03-29T07:28:11.274Z,57.05
2023-03-29T07:30:39.227Z,58.52
2023-03-29T07:33:07.200Z,56.25
2023-03-29T07:35:36.401Z,57.74
2023-03-29T07:38:04.467Z,55.66
2023-03-29T07:40:32.627Z,54.62
2023-03-29T07:43:00.654Z,56.81
2023-03-29T07:45:30.213Z,53.68
2023-03-29T07:47:59.806Z,54.13
2023-03-29T07:50:28.979Z,51.97
2023-03-29T07:52:57.684Z,52.24
2023-03-29T07:55:25.759Z,52.21
2023-03-29T07:57:54.102Z,52.99
2023-03-29T08:00:25.045Z,49.70
2023-03-29T08:02:54.986Z,52.04
2023-03-29T08:05:37.770Z,50.17
2023-03-29T08:08:09.766Z,52.31
2023-03-29T08:10:39.471Z,52.59
2023-03-29T08:13:11.070Z,53.61
2023-03-29T08:15:40.226Z,54.23
2023-03-29T08:18:09.738Z,54.94
2023-03-29T08:20:37.758Z,54.70
2023-03-29T08:23:06.502Z,51.00
2023-03-29T08:25:35.376Z,45.49
2023-03-29T08:28:03.563Z,44.18
2023-03-29T08:30:31.675Z,43.33
2023-03-29T08:32:59.760Z,43.69
2023-03-29T08:35:29.623Z,45.72
2023-03-29T08:37:57.561Z,45.23
2023-03-29T08:40:30.103Z,46.48
2023-03-29T08:43:12.898Z,50.15
2023-03-29T08:45:51.503Z,43.46
2023-03-29T08:48:28.534Z,42.99
2023-03-29T08:51:02.732Z,45.76
2023-03-29T08:53:33.906Z,41.59
2023-03-29T08:56:06.078Z,41.86
2023-03-29T08:58:35.799Z,42.66
2023-03-29T09:01:08.774Z,43.21
2023-03-29T09:03:41.863Z,40.82
2023-03-29T09:06:13.705Z,41.67
2023-03-29T09:08:45.183Z,41.79
2023-03-29T09:11:39.410Z,40.91
2023-03-29T09:14:25.903Z,42.06
2023-03-29T09:17:02.189Z,40.40
2023-03-29T09:19:39.015Z,40.00
2023-03-29T09:22:17.208Z,37.96
2023-03-29T09:24:59.570Z,39.03
2023-03-29T09:27:31.458Z,40.29
2023-03-29T09:30:19.067Z,45.75
2023-03-29T09:32:53.324Z,47.02
2023-03-29T09:35:23.380Z,48.35
2023-03-29T09:37:55.800Z,47.67
2023-03-29T09:40:27.861Z,48.43
2023-03-29T09:42:57.184Z,47.69
2023-03-29T09:45:25.124Z,45.77
2023-03-29T09:47:57.751Z,45.83
2023-03-29T09:50:31.912Z,45.69
2023-03-29T09:53:01.322Z,45.08
2023-03-29T09:55:32.383Z,49.92
2023-03-29T09:58:03.087Z,52.01
2023-03-29T10:00:31.036Z,51.88
2023-03-29T10:03:00.336Z,53.50
2023-03-29T10:05:32.032Z,55.39
2023-03-29T10:08:02.533Z,58.58
2023-03-29T10:10:33.119Z,56.23
2023-03-29T10:13:04.531Z,56.71
2023-03-29T10:15:32.727Z,51.50
2023-03-29T10:18:03.262Z,48.03
2023-03-29T10:20:31.823Z,48.82
2023-03-29T10:23:01.997Z,45.91
2023-03-29T10:25:33.762Z,47.00
2023-03-29T10:28:07.103Z,46.24
2023-03-29T10:30:38.685Z,45.87
2023-03-29T10:33:09.104Z,47.98
2023-03-29T10:35:41.934Z,50.11
2023-03-29T10:38:14.979Z,49.60
2023-03-29T10:40:45.790Z,46.87
2023-03-29T10:43:16.139Z,50.13
2023-03-29T10:45:44.840Z,47.14
2023-03-29T10:48:15.361Z,42.90
2023-03-29T10:50:43.946Z,42.14
2023-03-29T10:53:18.612Z,43.97
2023-03-29T10:55:55.152Z,41.71
2023-03-29T10:58:35.103Z,41.13
2023-03-29T11:01:04.029Z,41.80
2023-03-29T11:03:54.605Z,42.44
2023-03-29T11:06:29.331Z,42.09
2023-03-29T11:09:01.011Z,40.90
2023-03-29T11:12:01.090Z,41.20
2023-03-29T11:14:46.838Z,40.10
2023-03-29T11:17:28.489Z,42.02
2023-03-29T11:20:14.855Z,41.01
2023-03-29T11:22:50.411Z,40.14
2023-03-29T11:25:35.088Z,38.82
2023-03-29T11:28:11.084Z,39.11
2023-03-29T11:30:45.294Z,37.23
2023-03-29T11:33:23.173Z,36.07
2023-03-29T11:35:57.767Z,37.90
2023-03-29T11:38:32.952Z,37.76
2023-03-29T11:41:12.040Z,37.71
2023-03-29T11:43:44.054Z,37.65
2023-03-29T11:46:17.867Z,37.71
2023-03-29T11:48:50.800Z,36.42
2023-03-29T11:51:23.881Z,36.31
2023-03-29T11:53:58.043Z,38.20
2023-03-29T11:56:33.418Z,38.79
2023-03-29T11:59:07.573Z,37.89
2023-03-29T12:01:40.785Z,39.04
2023-03-29T12:04:14.952Z,37.81
2023-03-29T12:06:49.854Z,36.34
2023-03-29T12:09:26.707Z,37.01
2023-03-29T12:12:04.329Z,37.68
2023-03-29T12:14:43.970Z,36.41
2023-03-29T12:17:16.491Z,34.75
2023-03-29T12:19:50.149Z,33.78
2023-03-29T12:22:18.080Z,35.01
2023-03-29T12:24:51.174Z,36.67
2023-03-29T12:27:31.113Z,34.64
2023-03-29T12:30:19.749Z,36.29
2023-03-29T12:33:02.953Z,36.87
2023-03-29T12:35:39.573Z,36.74
2023-03-29T12:38:14.197Z,36.01
2023-03-29T12:40:44.933Z,36.14
2023-03-29T12:43:24.330Z,36.39
2023-03-29T12:45:56.227Z,37.36
2023-03-29T12:48:27.518Z,35.80
2023-03-29T12:51:01.026Z,33.80
2023-03-29T12:53:34.167Z,35.37
2023-03-29T12:56:15.427Z,35.99
2023-03-29T12:59:09.063Z,35.83
2023-03-29T13:01:38.873Z,35.66
2023-03-29T13:04:19.489Z,36.00
2023-03-29T13:07:03.124Z,31.99
2023-03-29T13:09:35.593Z,31.58
2023-03-29T13:12:20.289Z,31.32
2023-03-29T13:14:52.104Z,32.13
2023-03-29T13:17:32.674Z,31.62
2023-03-29T13:20:22.480Z,31.34
2023-03-29T13:23:02.081Z,31.08
2023-03-29T13:25:51.315Z,31.78
2023-03-29T13:28:29.456Z,31.69
2023-03-29T13:31:05.322Z,32.63
2023-03-29T13:33:59.410Z,30.45
2023-03-29T13:36:41.688Z,30.95
2023-03-29T13:39:17.940Z,32.15
2023-03-29T13:41:49.449Z,31.56
2023-03-29T13:44:30.299Z,31.50
2023-03-29T13:47:16.365Z,31.08
2023-03-29T13:49:48.621Z,31.53
2023-03-29T13:52:24.062Z,31.25
2023-03-29T13:54:57.566Z,31.31
2023-03-29T13:57:32.887Z,30.27
2023-03-29T14:00:11.654Z,29.41
2023-03-29T14:02:47.347Z,30.30
2023-03-29T14:05:20.900Z,29.29
2023-03-29T14:07:52.784Z,30.59
2023-03-29T14:10:25.687Z,29.42
2023-03-29T14:12:55.425Z,27.69
2023-03-29T14:15:26.713Z,29.88
2023-03-29T14:18:00.356Z,29.78
2023-03-29T14:20:30.541Z,29.74
2023-03-29T14:22:58.630Z,30.29
2023-03-29T14:25:27.394Z,30.13
2023-03-29T14:27:55.522Z,30.45
2023-03-29T14:30:28.415Z,27.72
2023-03-29T14:32:58.110Z,29.62
2023-03-29T14:35:33.287Z,27.98
2023-03-29T14:38:03.932Z,28.67
2023-03-29T14:40:32.650Z,27.16
2023-03-29T14:43:05.393Z,27.50
2023-03-29T14:45:33.566Z,28.42
2023-03-29T14:48:03.693Z,28.73
2023-03-29T14:50:32.448Z,27.82
2023-03-29T14:53:03.202Z,27.90
2023-03-29T14:55:31.659Z,28.92
2023-03-29T14:58:00.336Z,28.91
2023-03-29T15:00:30.270Z,28.97
2023-03-29T15:03:00.202Z,28.73
2023-03-29T15:05:38.772Z,28.28
2023-03-29T15:08:10.006Z,29.19
2023-03-29T15:10:42.348Z,28.18
2023-03-29T15:13:17.814Z,28.94
2023-03-29T15:15:46.355Z,29.81
2023-03-29T15:18:17.826Z,29.00
2023-03-29T15:20:47.444Z,29.59
2023-03-29T15:23:24.783Z,29.14
2023-03-29T15:25:56.710Z,30.71
2023-03-29T15:28:31.146Z,29.49
2023-03-29T15:33:38.266Z,29.39
2023-03-29T15:36:10.099Z,28.36
2023-03-29T15:38:44.112Z,29.10
2023-03-29T15:41:14.656Z,28.29
2023-03-29T15:43:43.160Z,29.11
2023-03-29T15:46:13.507Z,28.66
2023-03-29T15:48:42.175Z,29.65
2023-03-29T15:51:13.245Z,29.48
2023-03-29T15:53:41.363Z,28.78
2023-03-29T15:56:11.479Z,29.09
2023-03-29T15:58:39.726Z,28.67
2023-03-29T16:01:16.111Z,27.97
2023-03-29T16:03:47.084Z,30.88
2023-03-29T16:06:18.087Z,30.07
2023-03-29T16:08:46.142Z,29.89
2023-03-29T16:11:14.168Z,31.38
2023-03-29T16:13:42.194Z,32.97
2023-03-29T16:16:12.087Z,30.92
2023-03-29T16:18:40.042Z,29.64
2023-03-29T16:21:12.642Z,30.41
2023-03-29T16:23:42.978Z,30.22
2023-03-29T16:26:12.873Z,30.82
2023-03-29T16:28:41.064Z,31.42
2023-03-29T16:31:11.280Z,30.97
2023-03-29T16:33:39.269Z,29.94
2023-03-29T16:36:08.426Z,31.13
2023-03-29T16:38:36.344Z,32.26
2023-03-29T16:41:06.251Z,33.13
2023-03-29T16:43:34.220Z,31.70
2023-03-29T16:46:02.303Z,32.03
2023-03-29T16:48:30.554Z,34.61
2023-03-29T16:50:58.520Z,32.42
2023-03-29T16:53:27.091Z,34.89
2023-03-29T16:55:55.352Z,36.83
2023-03-29T16:58:26.925Z,37.65
2023-03-29T17:00:56.272Z,37.84
2023-03-29T17:03:25.261Z,38.30
2023-03-29T17:05:55.013Z,38.23
2023-03-29T17:08:23.213Z,38.79
2023-03-29T17:10:54.066Z,38.57
2023-03-29T17:13:24.075Z,38.55
2023-03-29T17:15:54.825Z,38.19
2023-03-29T17:18:23.951Z,39.45
2023-03-29T17:20:53.274Z,39.74
2023-03-29T17:23:21.316Z,35.78
2023-03-29T17:25:49.478Z,37.94
2023-03-29T17:28:17.594Z,37.66
2023-03-29T17:30:46.168Z,39.76
2023-03-29T17:33:15.724Z,41.45
2023-03-29T17:35:44.403Z,40.97
2023-03-29T17:38:12.721Z,41.73
2023-03-29T17:40:41.195Z,39.39
2023-03-29T17:43:09.152Z,41.24
2023-03-29T17:45:37.121Z,41.41
2023-03-29T17:48:06.549Z,40.21
2023-03-29T17:50:36.180Z,41.79
2023-03-29T17:53:04.118Z,42.12
2023-03-29T17:55:32.054Z,43.33
2023-03-29T17:57:59.969Z,45.91
2023-03-29T18:00:28.290Z,45.88
2023-03-29T18:02:56.545Z,45.98
2023-03-29T18:05:24.606Z,43.47
2023-03-29T18:07:53.917Z,44.42
2023-03-29T18:10:21.841Z,42.98
2023-03-29T18:12:50.159Z,42.96
2023-03-29T18:15:18.295Z,43.33
2023-03-29T18:17:46.486Z,42.22
2023-03-29T18:20:14.709Z,43.32
2023-03-29T18:22:42.868Z,43.79
2023-03-29T18:25:12.378Z,43.14
2023-03-29T18:27:41.005Z,44.80
2023-03-29T18:30:09.887Z,43.29
2023-03-29T18:32:37.926Z,43.69
2023-03-29T18:35:06.849Z,43.98
2023-03-29T18:37:34.847Z,43.59
2023-03-29T18:40:04.396Z,43.46
2023-03-29T18:42:33.699Z,43.25
2023-03-29T18:45:01.610Z,43.78
2023-03-29T18:47:29.549Z,44.50
2023-03-29T18:49:57.793Z,44.20
2023-03-29T18:52:25.814Z,44.58
2023-03-29T18:54:53.784Z,45.83
2023-03-29T18:57:21.781Z,44.58
2023-03-29T18:59:51.217Z,44.22
2023-03-29T19:02:19.309Z,45.05
2023-03-29T19:04:47.395Z,44.56
2023-03-29T19:07:15.333Z,45.19
2023-03-29T19:09:43.224Z,45.01
2023-03-29T19:12:11.290Z,44.94
2023-03-29T19:14:39.165Z,44.69
2023-03-29T19:17:08.557Z,44.42
2023-03-29T19:19:37.827Z,45.33
2023-03-29T19:22:05.847Z,46.82
2023-03-29T19:24:33.825Z,46.31
2023-03-29T19:27:01.845Z,47.96
2023-03-29T19:29:29.811Z,48.93
2023-03-29T19:31:57.983Z,49.22
2023-03-29T19:34:28.198Z,48.75
2023-03-29T19:36:56.656Z,48.98
2023-03-29T19:39:26.697Z,48.76
2023-03-29T19:41:55.420Z,50.32
2023-03-29T19:44:24.443Z,50.32
2023-03-29T19:46:52.812Z,50.53
2023-03-29T19:49:20.822Z,52.96
2023-03-29T19:51:54.484Z,52.20
2023-03-29T19:54:24.107Z,52.79
2023-03-29T19:56:52.831Z,53.56
2023-03-29T19:59:20.875Z,52.37
2023-03-29T20:01:51.815Z,50.50
2023-03-29T20:04:20.948Z,53.42
2023-03-29T20:06:50.577Z,54.24
2023-03-29T20:09:18.719Z,54.25
2023-03-29T20:11:47.586Z,54.47
2023-03-29T20:14:15.537Z,52.53
2023-03-29T20:16:44.830Z,52.08
2023-03-29T20:19:14.215Z,51.95
2023-03-29T20:21:42.224Z,52.07
2023-03-29T20:24:12.196Z,51.75
2023-03-29T20:26:40.168Z,52.38
2023-03-29T20:29:08.115Z,54.31
2023-03-29T20:31:36.093Z,52.84
2023-03-29T20:34:04.023Z,51.49
2023-03-29T20:36:32.050Z,52.37
2023-03-29T20:39:01.303Z,52.15
2023-03-29T20:41:31.510Z,53.21
2023-03-29T20:44:00.078Z,53.03
2023-03-29T20:46:33.443Z,52.42
2023-03-29T20:49:02.025Z,53.22
2023-03-29T20:51:32.190Z,54.21
2023-03-29T20:54:04.612Z,54.21
2023-03-29T20:56:35.689Z,53.92
2023-03-29T20:59:04.136Z,53.23
2023-03-29T21:01:32.172Z,54.26
2023-03-29T21:04:00.190Z,54.15
2023-03-29T21:06:28.175Z,53.55
2023-03-29T21:08:56.081Z,53.22
2023-03-29T21:11:23.966Z,53.59
2023-03-29T21:13:53.970Z,53.89
2023-03-29T21:16:22.130Z,53.98
2023-03-29T21:18:50.064Z,53.48
2023-03-29T21:21:18.172Z,52.97
2023-03-29T21:23:46.147Z,54.31
2023-03-29T21:26:14.059Z,57.85
2023-03-29T21:28:42.488Z,57.84
2023-03-29T21:31:11.780Z,58.44
2023-03-29T21:33:39.747Z,57.88
2023-03-29T21:36:08.342Z,59.32
2023-03-29T21:38:36.788Z,59.79
2023-03-29T21:41:04.846Z,60.40
2023-03-29T21:43:32.914Z,61.34
2023-03-29T21:46:01.054Z,60.20
2023-03-29T21:48:30.385Z,61.12
2023-03-29T21:50:58.697Z,60.29
2023-03-29T21:53:27.091Z,61.62
2023-03-29T21:55:55.441Z,62.54
2023-03-29T21:58:23.425Z,62.24
2023-03-29T22:00:51.515Z,63.90
2023-03-29T22:03:19.598Z,66.83
2023-03-29T22:05:58.403Z,68.83
2023-03-29T22:08:27.084Z,66.73
2023-03-29T22:10:57.033Z,65.73
2023-03-29T22:13:26.323Z,64.97
2023-03-29T22:15:59.239Z,64.80
2023-03-29T22:18:30.261Z,64.68
2023-03-29T22:20:59.610Z,65.40
2023-03-29T22:23:27.796Z,64.38
2023-03-29T22:25:55.709Z,64.39
2023-03-29T22:28:23.618Z,63.88
2023-03-29T22:30:51.520Z,63.69
2023-03-29T22:33:19.397Z,63.00
2023-03-29T22:35:47.311Z,63.90
2023-03-29T22:38:16.603Z,64.17
2023-03-29T22:40:44.504Z,64.66
2023-03-29T22:43:12.410Z,65.13
2023-03-29T22:45:40.634Z,63.75
2023-03-29T22:48:08.595Z,65.11
2023-03-29T22:50:36.730Z,63.00
2023-03-29T22:53:04.933Z,62.46
2023-03-29T22:55:34.268Z,64.03
2023-03-29T22:58:02.199Z,65.23
2023-03-29T23:00:30.206Z,67.52
2023-03-29T23:02:58.357Z,67.85
2023-03-29T23:05:26.454Z,68.76
2023-03-29T23:07:55.810Z,67.38
2023-03-29T23:10:28.732Z,67.59
2023-03-29T23:13:08.611Z,68.40
2023-03-29T23:15:37.844Z,71.70
2023-03-29T23:18:06.669Z,69.85
2023-03-29T23:20:34.572Z,70.67
2023-03-29T23:23:02.563Z,70.23
2023-03-29T23:25:30.606Z,70.05
2023-03-29T23:27:59.929Z,70.83
2023-03-29T23:30:29.695Z,70.74
2023-03-29T23:32:58.255Z,71.25
2023-03-29T23:35:26.353Z,69.81
2023-03-29T23:37:54.271Z,70.11
2023-03-29T23:40:22.274Z,70.43
2023-03-29T23:42:50.173Z,71.44
2023-03-29T23:45:20.205Z,69.74
2023-03-29T23:47:48.412Z,68.76
2023-03-29T23:50:16.854Z,68.59
2023-03-29T23:52:46.677Z,69.61
2023-03-29T23:55:15.670Z,68.98
2023-03-29T23:57:44.121Z,67.88
